Time;durP1;ratioP1;P1;durP2;ratioP2;P2;SDS_P1;SDS_P2;PMS_P1;PMS_P2;Temp;Humidity;BMP_temperature;BMP_pressure;BME280_temperature;BME280_humidity;BME280_pressure;Samples;Min_cycle;Max_cycle;Signal;HPM_P1;HPM_P2
2022/08/24 00:02:23;;;;;;;8.35;4.28;;;;;;;20.99;78.76;99122.53;6129146;23;20072;-91
2022/08/24 00:04:49;;;;;;;5.70;4.25;;;;;;;20.94;78.08;99122.00;6128895;23;20005;-90
2022/08/24 00:07:15;;;;;;;5.28;3.80;;;;;;;20.97;78.95;99121.31;6153779;23;20012;-91
2022/08/24 00:09:41;;;;;;;5.30;3.90;;;;;;;20.86;78.88;99115.50;6104920;23;20005;-90
2022/08/24 00:12:06;;;;;;;10.40;4.30;;;;;;;20.86;79.20;99126.44;6129478;23;20072;-90
2022/08/24 00:14:32;;;;;;;8.30;4.22;;;;;;;20.96;78.52;99128.72;6154637;23;20002;-91
2022/08/24 00:16:58;;;;;;;10.10;4.00;;;;;;;20.95;78.64;99118.09;6129787;23;20005;-91
2022/08/24 00:19:24;;;;;;;5.57;4.00;;;;;;;20.90;79.51;99129.31;6129395;23;20077;-91
2022/08/24 00:21:50;;;;;;;8.05;4.30;;;;;;;20.80;78.99;99127.81;6153857;23;20001;-91
2022/08/24 00:24:15;;;;;;;9.30;3.28;;;;;;;20.90;78.69;99126.56;6104590;23;20012;-90
2022/08/24 00:26:41;;;;;;;5.32;3.35;;;;;;;20.97;78.67;99129.50;6129127;23;20352;-90
2022/08/24 00:29:06;;;;;;;4.63;3.58;;;;;;;20.96;78.84;99128.72;6129282;23;20006;-90
2022/08/24 00:31:32;;;;;;;7.18;3.58;;;;;;;20.92;79.70;99143.44;6104388;23;20005;-90
2022/08/24 00:33:58;;;;;;;6.35;3.30;;;;;;;20.97;80.16;99145.94;6104847;23;20057;-90
2022/08/24 00:36:24;;;;;;;4.57;3.28;;;;;;;20.79;80.25;99132.50;6105020;23;20072;-91
2022/08/24 00:38:49;;;;;;;4.80;3.40;;;;;;;20.79;79.95;99139.88;6105565;23;20001;-91
2022/08/24 00:41:15;;;;;;;11.30;3.50;;;;;;;20.81;79.69;99143.09;6104998;23;20064;-90
2022/08/24 00:43:53;;;;;;;3.78;3.10;;;;;;;20.84;78.78;99134.19;6104449;23;20022;-89
2022/08/24 00:46:45;;;;;;;5.63;3.65;;;;;;;20.84;79.29;99145.16;6153734;23;20055;-91
2022/08/24 00:49:36;;;;;;;6.30;3.60;;;;;;;20.94;79.31;99150.16;6128673;23;20001;-89
2022/08/24 00:52:04;;;;;;;5.70;3.80;;;;;;;21.02;79.15;99153.91;6128891;23;20326;-91
2022/08/24 00:54:31;;;;;;;7.00;4.32;;;;;;;20.73;80.15;99117.44;6129024;23;20013;-90
2022/08/24 00:56:59;;;;;;;4.78;3.85;;;;;;;20.74;80.06;99140.13;6129221;23;20032;-91
2022/08/24 00:59:31;;;;;;;4.03;3.50;;;;;;;20.69;80.13;99148.53;6153509;23;20017;-90
2022/08/24 01:02:01;;;;;;;8.27;3.72;;;;;;;20.81;80.00;99154.03;6128711;23;19997;-90
2022/08/24 01:04:30;;;;;;;5.60;3.97;;;;;;;20.97;79.64;99165.88;6128420;23;20032;-90
2022/08/24 01:06:56;;;;;;;5.63;4.10;;;;;;;20.95;79.26;99148.22;6128921;23;20024;-90
2022/08/24 01:09:22;;;;;;;4.78;4.07;;;;;;;20.88;79.16;99148.78;6104023;23;20001;-90
2022/08/24 01:11:48;;;;;;;5.55;3.85;;;;;;;20.96;78.92;99158.81;6104127;23;20006;-91
2022/08/24 01:14:15;;;;;;;5.93;3.92;;;;;;;21.01;78.79;99146.06;6129017;23;20076;-91
2022/08/24 01:19:35;;;;;;;7.03;4.45;;;;;;;20.67;79.93;99164.50;6129301;23;20025;-89
2022/08/24 01:22:24;;;;;;;6.28;4.03;;;;;;;20.87;79.63;99188.22;6130904;23;20336;-91
2022/08/24 01:24:49;;;;;;;5.13;4.10;;;;;;;20.81;79.70;99180.59;6141365;23;20084;-91
2022/08/24 01:27:15;;;;;;;5.43;3.97;;;;;;;20.68;79.97;99166.91;6106039;23;20039;-90
2022/08/24 01:29:41;;;;;;;5.38;4.07;;;;;;;20.77;79.57;99177.75;6130674;23;19997;-91
2022/08/24 01:32:06;;;;;;;7.30;3.80;;;;;;;20.70;80.02;99170.09;6106072;23;20009;-90
2022/08/24 01:34:32;;;;;;;5.05;3.70;;;;;;;20.66;80.20;99171.94;6130243;23;20005;-91
2022/08/24 01:36:59;;;;;;;6.65;3.90;;;;;;;20.54;81.04;99169.13;6130410;23;20001;-91
2022/08/24 01:39:31;;;;;;;6.03;4.22;;;;;;;20.71;80.76;99192.78;6106840;23;20068;-91
2022/08/24 01:41:57;;;;;;;6.55;3.47;;;;;;;20.71;79.42;99187.31;6129853;23;20006;-91
2022/08/24 01:44:23;;;;;;;4.13;3.00;;;;;;;20.70;79.57;99186.53;6105286;23;20326;-91
2022/08/24 01:46:52;;;;;;;6.40;3.47;;;;;;;20.79;79.50;99197.34;6155119;23;20002;-91
2022/08/24 01:49:18;;;;;;;7.68;3.28;;;;;;;20.69;79.90;99195.06;6130418;23;20024;-91
2022/08/24 01:51:45;;;;;;;4.88;3.20;;;;;;;20.53;81.13;99194.91;6130544;23;19998;-90
2022/08/24 01:54:11;;;;;;;5.72;3.38;;;;;;;20.50;81.11;99185.47;6106839;23;20002;-91
2022/08/24 01:56:36;;;;;;;4.90;3.95;;;;;;;20.50;81.46;99198.31;6130162;23;20024;-90
2022/08/24 01:59:02;;;;;;;5.00;3.80;;;;;;;20.45;82.03;99201.28;6130753;23;20009;-91
2022/08/24 02:01:28;;;;;;;5.82;4.15;;;;;;;20.38;81.92;99193.63;6130787;23;19994;-90
2022/08/24 02:03:54;;;;;;;6.20;3.75;;;;;;;20.42;81.19;99196.47;6105676;23;20006;-91
2022/08/24 02:06:19;;;;;;;6.78;3.55;;;;;;;20.64;80.85;99209.78;6130074;23;19998;-91
2022/08/24 02:08:45;;;;;;;5.32;3.53;;;;;;;20.75;80.37;99213.69;6130235;23;20028;-90
2022/08/24 02:11:10;;;;;;;8.77;3.78;;;;;;;20.69;80.29;99193.16;6130491;23;20008;-90
2022/08/24 02:13:37;;;;;;;4.93;3.83;;;;;;;20.66;80.25;99209.44;6105430;23;20001;-90
2022/08/24 02:16:02;;;;;;;6.85;4.40;;;;;;;20.66;80.83;99202.03;6154572;23;19997;-91
2022/08/24 02:18:28;;;;;;;6.22;4.30;;;;;;;20.59;81.43;99199.06;6105588;23;20013;-90
2022/08/24 02:20:53;;;;;;;7.18;4.78;;;;;;;20.58;81.95;99200.19;6130093;23;20432;-90
2022/08/24 02:23:19;;;;;;;7.00;4.47;;;;;;;20.55;81.62;99187.97;6129659;23;20006;-90
2022/08/24 02:25:45;;;;;;;8.77;4.93;;;;;;;20.65;81.63;99184.03;6130047;23;20005;-91
2022/08/24 02:28:11;;;;;;;8.27;6.03;;;;;;;20.67;82.29;99200.91;6154548;23;20080;-90
2022/08/24 02:30:36;;;;;;;7.85;5.50;;;;;;;20.58;82.92;99194.72;6105254;23;20424;-91
2022/08/24 02:33:02;;;;;;;8.13;5.80;;;;;;;20.67;81.06;99187.22;6129883;23;20001;-91
2022/08/24 02:35:28;;;;;;;9.57;5.95;;;;;;;20.72;81.05;99188.94;6129780;23;20001;-92
2022/08/24 02:37:54;;;;;;;8.25;5.60;;;;;;;20.67;81.58;99192.69;6129422;23;19997;-91
2022/08/24 02:40:19;;;;;;;7.93;6.00;;;;;;;20.65;81.95;99200.44;6129835;23;20024;-91
2022/08/24 02:42:45;;;;;;;7.18;5.70;;;;;;;20.59;82.19;99185.38;6130433;23;20002;-90
2022/08/24 02:45:10;;;;;;;9.57;6.43;;;;;;;20.64;82.03;99193.34;6105275;23;20001;-90
2022/08/24 02:47:36;;;;;;;10.75;6.38;;;;;;;20.70;81.60;99202.16;6129496;23;20004;-91
2022/08/24 02:50:03;;;;;;;7.45;5.85;;;;;;;20.57;82.22;99195.84;6105010;23;20001;-91
2022/08/24 02:52:28;;;;;;;8.93;6.32;;;;;;;20.49;83.04;99194.00;6129626;23;20009;-91
2022/08/24 02:54:54;;;;;;;8.13;5.72;;;;;;;20.61;81.64;99188.56;6130028;23;20441;-91
2022/08/24 02:57:19;;;;;;;12.77;6.50;;;;;;;20.63;82.36;99207.38;6104992;23;20022;-90
2022/08/24 02:59:45;;;;;;;9.63;6.43;;;;;;;20.53;82.66;99198.44;6105961;23;20020;-91
2022/08/24 03:02:10;;;;;;;9.63;5.90;;;;;;;20.63;81.98;99202.72;6105412;23;19997;-90
2022/08/24 03:04:36;;;;;;;7.60;5.57;;;;;;;20.72;80.66;99208.06;6104787;23;20060;-91
2022/08/24 03:07:01;;;;;;;11.23;6.03;;;;;;;20.71;81.67;99190.88;6129917;23;20008;-90
2022/08/24 03:09:27;;;;;;;8.55;6.18;;;;;;;20.70;82.08;99194.72;6130216;23;20001;-91
2022/08/24 03:11:52;;;;;;;8.15;6.15;;;;;;;20.71;82.13;99190.88;6105611;23;20010;-91
2022/08/24 03:14:17;;;;;;;8.30;6.22;;;;;;;20.76;81.02;99182.41;6105367;23;20389;-91
2022/08/24 03:16:44;;;;;;;9.90;5.88;;;;;;;20.85;80.43;99184.25;6105629;23;20013;-91
2022/08/24 03:19:09;;;;;;;6.97;5.07;;;;;;;20.98;79.94;99191.34;6129363;23;20350;-91
2022/08/24 03:21:36;;;;;;;11.43;5.82;;;;;;;20.87;79.71;99193.72;6104936;23;20010;-93
2022/08/24 03:24:02;;;;;;;7.78;5.65;;;;;;;20.96;79.77;99207.31;6104776;23;20076;-90
2022/08/24 03:26:28;;;;;;;9.45;5.22;;;;;;;21.02;79.30;99194.16;6105027;23;20068;-91
2022/08/24 03:28:53;;;;;;;7.50;5.85;;;;;;;21.06;78.97;99197.81;6129647;23;20021;-92
2022/08/24 03:31:19;;;;;;;8.32;5.63;;;;;;;20.94;79.04;99193.97;6104341;23;20012;-92
2022/08/24 03:33:45;;;;;;;7.97;5.50;;;;;;;21.06;79.10;99195.88;6130397;23;20001;-92
2022/08/24 03:36:17;;;;;;;6.70;4.88;;;;;;;21.08;78.95;99187.31;6107510;23;19998;-96
2022/08/24 03:38:45;;;;;;;7.22;5.97;;;;;;;20.90;79.57;99186.78;6105328;23;20001;-93
2022/08/24 03:41:10;;;;;;;7.88;5.65;;;;;;;20.97;79.63;99189.72;6104479;23;20337;-93
2022/08/24 03:43:45;;;;;;;8.35;5.75;;;;;;;21.04;79.38;99200.88;6104907;23;20009;-92
2022/08/24 03:46:12;;;;;;;10.35;6.13;;;;;;;20.97;79.93;99192.47;6106656;23;20060;-92
2022/08/24 03:48:39;;;;;;;9.63;6.20;;;;;;;21.14;79.08;99199.66;6129349;23;20005;-93
2022/08/24 03:51:09;;;;;;;11.02;6.28;;;;;;;21.04;79.63;99206.38;6129790;23;20077;-93
2022/08/24 03:53:34;;;;;;;9.30;6.32;;;;;;;21.01;79.25;99204.31;6105085;23;20001;-93
2022/08/24 03:56:03;;;;;;;7.43;5.80;;;;;;;20.89;80.02;99194.16;6158531;23;19986;-95
2022/08/24 03:58:40;;;;;;;10.63;6.28;;;;;;;20.93;79.55;99178.66;6075906;23;19990;-93
2022/08/24 04:01:11;;;;;;;12.63;6.63;;;;;;;20.94;79.42;99185.75;6072538;23;20040;-94
2022/08/24 04:03:39;;;;;;;10.07;7.13;;;;;;;20.68;81.29;99185.28;6051931;23;19990;-94
2022/08/24 04:06:05;;;;;;;11.73;6.82;;;;;;;20.71;80.63;99185.41;6049998;23;20013;-96
2022/08/24 04:08:31;;;;;;;9.90;5.82;;;;;;;20.84;78.84;99182.66;6050940;23;20007;-96
2022/08/24 04:10:57;;;;;;;8.50;6.25;;;;;;;20.88;79.33;99200.00;6046749;23;20097;-94
2022/08/24 04:13:23;;;;;;;10.10;6.53;;;;;;;20.71;79.82;99207.28;6028782;23;19993;-95
2022/08/24 04:15:51;;;;;;;14.05;6.05;;;;;;;20.86;78.47;99192.13;6070649;23;20521;-92
2022/08/24 04:18:17;;;;;;;9.77;6.22;;;;;;;20.79;79.31;99202.81;6071078;23;20086;-91
2022/08/24 04:20:43;;;;;;;13.65;5.70;;;;;;;20.97;78.88;99217.09;6046353;23;20022;-92
2022/08/24 04:23:09;;;;;;;8.30;5.47;;;;;;;21.08;77.91;99218.22;6022376;23;20099;-92
2022/08/24 04:25:42;;;;;;;7.25;5.47;;;;;;;21.09;77.99;99208.91;6046334;23;20470;-92
2022/08/24 04:28:07;;;;;;;11.05;5.97;;;;;;;21.18;77.39;99206.03;6022959;23;20010;-91
2022/08/24 04:30:33;;;;;;;8.23;6.25;;;;;;;21.20;77.81;99217.44;6107474;23;20348;-91
2022/08/24 04:32:58;;;;;;;11.38;6.00;;;;;;;21.17;78.79;99234.56;6109123;23;20502;-91
2022/08/24 04:35:23;;;;;;;9.18;6.45;;;;;;;20.88;79.57;99208.22;6128766;23;20448;-92
2022/08/24 04:37:49;;;;;;;9.63;7.47;;;;;;;20.98;79.09;99224.19;6135021;23;19997;-95
2022/08/24 04:40:15;;;;;;;9.63;6.47;;;;;;;20.96;78.42;99204.56;6112673;23;19997;-95
2022/08/24 04:42:40;;;;;;;12.55;6.07;;;;;;;21.04;77.63;99209.09;6158397;23;20053;-96
2022/08/24 04:45:06;;;;;;;10.52;6.05;;;;;;;21.12;77.37;99213.66;6119441;23;20472;-96
2022/08/24 04:47:34;;;;;;;9.93;6.63;;;;;;;21.02;77.63;99205.13;6128296;23;20005;-96
2022/08/24 04:50:03;;;;;;;10.38;6.10;;;;;;;21.09;77.36;99208.09;6128294;23;20015;-96
2022/08/24 04:52:28;;;;;;;11.25;6.10;;;;;;;20.98;77.62;99197.59;6125556;23;20014;-95
2022/08/24 04:54:57;;;;;;;12.00;6.65;;;;;;;20.74;78.47;99201.13;6175178;23;20060;-96
2022/08/24 04:57:23;;;;;;;16.13;5.97;;;;;;;20.75;79.02;99221.88;6114508;23;20024;-94
2022/08/24 04:59:48;;;;;;;10.40;7.15;;;;;;;21.01;78.13;99234.44;6100887;23;20006;-96
2022/08/24 05:02:20;;;;;;;9.50;5.57;;;;;;;21.00;78.06;99224.66;6088574;23;20061;-96
2022/08/24 05:04:47;;;;;;;11.43;5.25;;;;;;;20.73;78.21;99210.47;6100874;23;20010;-96
2022/08/24 05:07:16;;;;;;;11.20;5.50;;;;;;;20.87;77.67;99221.09;6095473;23;20008;-94
2022/08/24 05:09:42;;;;;;;7.70;5.50;;;;;;;20.90;78.57;99238.78;6102667;23;20013;-95
2022/08/24 05:12:10;;;;;;;8.90;5.50;;;;;;;20.98;77.98;99218.72;6095559;23;20025;-95
2022/08/24 05:14:36;;;;;;;9.25;5.18;;;;;;;21.01;77.49;99231.69;6125390;23;20016;-96
2022/08/24 05:17:10;;;;;;;7.85;5.72;;;;;;;21.06;77.13;99234.19;6144151;23;20057;-96
2022/08/24 05:19:35;;;;;;;15.15;6.40;;;;;;;21.14;77.43;99246.19;6141837;23;20044;-96
2022/08/24 05:22:05;;;;;;;8.77;5.18;;;;;;;21.09;77.19;99233.53;6138597;23;19993;-96
2022/08/24 05:24:44;;;;;;;8.13;4.75;;;;;;;21.31;76.34;99250.63;6119182;23;20033;-96
2022/08/24 05:27:51;;;;;;;9.45;4.57;;;;;;;21.10;75.79;99217.91;6168594;23;20001;-95
2022/08/24 05:30:24;;;;;;;8.85;4.75;;;;;;;21.14;76.46;99240.72;6120616;23;20002;-94
2022/08/24 05:32:50;;;;;;;9.88;4.47;;;;;;;21.19;75.83;99227.59;6143202;23;20006;-95
2022/08/24 05:35:15;;;;;;;9.70;4.50;;;;;;;21.25;75.39;99258.31;6137321;23;20006;-93
2022/08/24 05:37:50;;;;;;;6.90;4.65;;;;;;;21.08;75.75;99253.03;6138362;23;20072;-94
2022/08/24 05:40:17;;;;;;;8.30;5.65;;;;;;;21.00;75.43;99224.66;6134116;23;20005;-95
2022/08/24 05:42:43;;;;;;;7.95;4.38;;;;;;;21.09;75.12;99241.75;6114081;23;20009;-95
2022/08/24 05:45:11;;;;;;;5.65;4.63;;;;;;;20.90;76.76;99222.34;6140128;23;20001;-94
2022/08/24 05:47:38;;;;;;;10.05;4.38;;;;;;;20.94;76.40;99239.69;6094126;23;20008;-95
2022/08/24 05:50:07;;;;;;;9.20;6.03;;;;;;;20.74;77.95;99233.94;6142160;23;20009;-95
2022/08/24 05:52:36;;;;;;;8.10;5.60;;;;;;;20.67;78.95;99249.31;6092081;23;20005;-96
2022/08/24 05:55:10;;;;;;;9.40;5.43;;;;;;;20.85;77.92;99272.63;6113423;23;20009;-96
2022/08/24 05:57:37;;;;;;;7.35;4.70;;;;;;;20.52;79.15;99253.47;6110471;23;20035;-96
2022/08/24 06:00:09;;;;;;;7.47;4.70;;;;;;;20.69;79.53;99267.03;6116951;23;20006;-94
2022/08/24 06:02:34;;;;;;;;;;;;;;;20.93;78.07;99273.66;6113191;23;20020;-94
2022/08/24 06:04:59;;;;;;;6.13;4.40;;;;;;;20.93;78.44;99265.47;6131275;23;19948;-95
2022/08/24 06:07:25;;;;;;;7.75;4.72;;;;;;;20.95;77.93;99246.75;6140133;23;20005;-95
2022/08/24 06:09:52;;;;;;;7.90;4.40;;;;;;;20.86;78.08;99227.72;6133540;23;20001;-92
2022/08/24 06:12:18;;;;;;;7.40;5.25;;;;;;;20.95;78.67;99249.50;6107235;23;20094;-95
2022/08/24 06:14:49;;;;;;;8.80;5.53;;;;;;;20.64;81.03;99236.34;6108626;23;20009;-95
2022/08/24 06:17:24;;;;;;;7.75;5.57;;;;;;;20.55;82.29;99263.75;6133999;23;20036;-96
2022/08/24 06:19:49;;;;;;;7.57;5.57;;;;;;;20.67;80.88;99241.94;6122726;23;20005;-96
2022/08/24 06:22:16;;;;;;;5.45;4.38;;;;;;;20.70;79.51;99251.41;6118966;23;20009;-96
2022/08/24 06:27:26;;;;;;;12.02;5.40;;;;;;;20.73;80.80;99229.63;6142613;23;20036;-96
2022/08/24 06:29:53;;;;;;;7.97;5.38;;;;;;;20.86;80.25;99246.06;6135465;23;19997;-96
2022/08/24 06:32:25;;;;;;;6.28;4.50;;;;;;;20.82;78.77;99226.78;6164561;23;20061;-96
2022/08/24 06:34:56;;;;;;;12.93;5.57;;;;;;;20.90;80.62;99241.50;6144089;23;20001;-96
2022/08/24 06:37:25;;;;;;;7.10;5.05;;;;;;;20.96;80.01;99260.09;6119796;23;20008;-95
2022/08/24 06:39:55;;;;;;;10.05;7.75;;;;;;;20.67;81.66;99232.91;6165347;23;19997;-96
2022/08/24 06:42:20;;;;;;;6.97;5.55;;;;;;;20.91;80.67;99263.06;6141209;23;20000;-95
2022/08/24 06:44:47;;;;;;;7.63;5.30;;;;;;;20.63;81.40;99249.22;6112560;23;20353;-96
2022/08/24 06:47:22;;;;;;;8.73;6.15;;;;;;;20.56;82.80;99265.34;6116859;23;20001;-95
2022/08/24 06:49:48;;;;;;;11.07;6.30;;;;;;;20.49;82.72;99260.44;6141144;23;20109;-96
2022/08/24 06:52:17;;;;;;;10.15;5.45;;;;;;;20.56;81.59;99251.66;6142547;23;20002;-89
2022/08/24 06:54:42;;;;;;;10.07;7.10;;;;;;;20.68;82.06;99257.19;6105632;23;20025;-90
2022/08/24 06:57:08;;;;;;;12.80;6.35;;;;;;;20.70;82.40;99276.03;6149718;23;20364;-96
2022/08/24 06:59:37;;;;;;;8.18;5.95;;;;;;;20.59;82.62;99268.25;6147682;23;20412;-94
2022/08/24 07:02:02;;;;;;;11.68;6.90;;;;;;;20.57;82.53;99278.69;6140226;23;20024;-96
2022/08/24 07:04:29;;;;;;;12.23;7.10;;;;;;;20.43;82.71;99248.09;6112476;23;20001;-92
2022/08/24 07:06:59;;;;;;;8.38;6.97;;;;;;;20.68;82.89;99270.09;6133239;23;20001;-89
2022/08/24 07:09:45;;;;;;;10.70;7.40;;;;;;;20.39;83.75;99258.91;6158759;23;20172;-89
2022/08/24 07:12:11;;;;;;;11.63;8.98;;;;;;;20.66;83.00;99264.94;6128987;23;20425;-90
2022/08/24 07:14:36;;;;;;;17.20;12.63;;;;;;;20.57;83.20;99262.28;6155668;23;20016;-88
2022/08/24 07:17:02;;;;;;;9.70;7.45;;;;;;;20.66;84.14;99295.03;6153092;23;20029;-90
2022/08/24 07:19:28;;;;;;;12.65;9.60;;;;;;;20.59;83.60;99303.00;6130032;23;20001;-91
2022/08/24 07:22:00;;;;;;;12.02;9.73;;;;;;;20.42;84.45;99283.97;6105343;23;20072;-88
2022/08/24 07:24:25;;;;;;;13.10;8.90;;;;;;;20.29;85.04;99274.94;6154664;23;20005;-92
2022/08/24 07:26:51;;;;;;;11.38;8.18;;;;;;;20.38;85.98;99300.28;6129771;23;20051;-89
2022/08/24 07:29:20;;;;;;;11.20;7.68;;;;;;;20.35;85.52;99268.13;6152147;23;20001;-91
2022/08/24 07:31:51;;;;;;;12.00;7.72;;;;;;;20.32;86.33;99280.53;6184118;23;20075;-91
2022/08/24 07:34:17;;;;;;;11.43;7.97;;;;;;;20.45;85.26;99286.06;6153437;23;19998;-92
2022/08/24 07:36:45;;;;;;;13.38;7.50;;;;;;;20.35;85.38;99292.75;6131981;23;20060;-91
2022/08/24 07:39:15;;;;;;;9.90;7.05;;;;;;;20.34;86.26;99294.69;6129715;23;20047;-91
2022/08/24 07:41:42;;;;;;;11.02;8.05;;;;;;;20.28;86.06;99289.75;6108602;23;20002;-89
2022/08/24 07:44:13;;;;;;;15.05;7.85;;;;;;;20.15;86.52;99272.47;6105818;23;20006;-91
2022/08/24 07:46:39;;;;;;;14.55;8.70;;;;;;;20.17;86.58;99292.09;6108954;23;20001;-89
2022/08/24 07:49:06;;;;;;;13.18;9.18;;;;;;;20.06;86.43;99269.81;6104982;23;20025;-90
2022/08/24 07:51:31;;;;;;;17.80;11.18;;;;;;;20.19;87.95;99289.81;6105189;23;20087;-89
2022/08/24 07:54:00;;;;;;;12.75;9.32;;;;;;;20.17;86.30;99276.50;6104525;23;20344;-89
2022/08/24 07:56:27;;;;;;;16.20;9.82;;;;;;;20.36;86.39;99291.63;6152686;23;20029;-88
2022/08/24 07:58:53;;;;;;;16.45;9.82;;;;;;;20.55;86.47;99302.06;6105103;23;20060;-90
2022/08/24 08:01:20;;;;;;;11.45;9.10;;;;;;;20.62;85.13;99298.78;6151292;23;20365;-89
2022/08/24 08:03:46;;;;;;;18.02;12.45;;;;;;;20.58;85.70;99290.47;6132633;23;20016;-89
2022/08/24 08:06:19;;;;;;;16.75;10.00;;;;;;;20.82;84.99;99308.09;6102198;23;20429;-89
2022/08/24 08:08:44;;;;;;;13.55;9.73;;;;;;;20.96;84.82;99305.84;6107232;23;20321;-89
2022/08/24 08:11:12;;;;;;;12.68;7.95;;;;;;;21.28;82.95;99320.59;6102623;23;20002;-91
2022/08/24 08:13:38;;;;;;;10.10;7.72;;;;;;;21.34;81.73;99297.31;6130180;23;20023;-88
2022/08/24 08:16:04;;;;;;;10.60;7.38;;;;;;;21.55;81.19;99310.13;6104223;23;20001;-89
2022/08/24 08:18:30;;;;;;;12.55;7.80;;;;;;;21.84;79.95;99309.06;6104426;23;19998;-87
2022/08/24 08:20:55;;;;;;;10.32;7.80;;;;;;;21.98;79.55;99320.47;6103547;23;20014;-89
2022/08/24 08:26:14;;;;;;;12.15;8.18;;;;;;;22.24;80.12;99307.50;6140768;23;20055;-93
2022/08/24 08:28:41;;;;;;;12.82;7.75;;;;;;;22.14;78.71;99286.81;6157470;23;20001;-89
2022/08/24 08:31:09;;;;;;;10.73;7.75;;;;;;;22.60;79.27;99290.09;6152743;23;20080;-90
2022/08/24 08:33:35;;;;;;;9.90;7.22;;;;;;;22.88;77.54;99270.03;6153383;23;20008;-89
2022/08/24 08:36:07;;;;;;;10.30;7.53;;;;;;;23.05;76.63;99294.41;6183421;23;20005;-92
2022/08/24 08:38:33;;;;;;;10.63;6.85;;;;;;;23.16;75.80;99279.00;6129651;23;20012;-91
2022/08/24 08:41:20;;;;;;;10.10;6.53;;;;;;;23.42;75.75;99285.09;6128780;23;20405;-89
2022/08/24 08:44:04;;;;;;;9.00;6.10;;;;;;;23.70;73.17;99279.44;6157035;23;20009;-93
2022/08/24 08:46:33;;;;;;;10.38;5.57;;;;;;;23.98;72.34;99271.84;6185708;23;20016;-92
2022/08/24 08:49:22;;;;;;;10.05;5.93;;;;;;;24.04;72.28;99268.81;6158625;23;20443;-90
2022/08/24 08:51:57;;;;;;;11.60;6.35;;;;;;;23.96;70.89;99243.91;6158335;23;20001;-91
2022/08/24 08:54:32;;;;;;;8.52;5.57;;;;;;;23.98;70.07;99266.34;6129313;23;20433;-92
2022/08/24 08:57:13;;;;;;;11.90;5.28;;;;;;;24.12;71.32;99263.09;6147288;23;20044;-90
2022/08/24 09:00:05;;;;;;;10.45;5.15;;;;;;;24.50;68.98;99290.97;6108126;23;20005;-91
2022/08/24 09:02:46;;;;;;;9.43;5.65;;;;;;;24.56;68.66;99289.53;6158998;23;20009;-92
2022/08/24 09:05:23;;;;;;;9.40;4.53;;;;;;;24.40;67.84;99289.56;6160260;23;20076;-92
2022/08/24 09:08:04;;;;;;;12.07;5.10;;;;;;;24.03;69.19;99265.28;6160406;23;20416;-91
2022/08/24 09:11:06;;;;;;;8.10;4.63;;;;;;;24.08;69.43;99299.94;6131540;23;20048;-96
2022/08/24 09:13:46;;;;;;;;;;;;;;;23.94;70.12;99287.47;6160311;23;20005;-90
2022/08/24 09:16:17;;;;;;;6.53;4.13;;;;;;;23.85;67.99;99284.16;6182608;23;19955;-92
2022/08/24 09:18:55;;;;;;;6.40;4.13;;;;;;;23.83;67.51;99282.91;6156579;23;19997;-91
2022/08/24 09:21:43;;;;;;;11.35;7.15;;;;;;;23.56;70.46;99274.44;6158475;23;19994;-89
2022/08/24 09:24:45;;;;;;;10.70;6.35;;;;;;;23.76;70.92;99287.09;6128187;23;20337;-90
2022/08/24 09:27:20;;;;;;;20.90;6.72;;;;;;;24.14;70.54;99284.75;6176085;23;20495;-90
2022/08/24 09:30:22;;;;;;;8.38;5.97;;;;;;;24.49;67.86;99290.19;6184510;23;20085;-90
2022/08/24 09:33:19;;;;;;;13.13;5.70;;;;;;;24.65;67.29;99286.53;6156944;23;20001;-90
2022/08/24 09:35:50;;;;;;;14.73;7.63;;;;;;;24.51;67.89;99287.88;6131892;23;20001;-90
2022/08/24 09:38:23;;;;;;;9.45;5.70;;;;;;;24.53;66.85;99281.97;6157956;23;20035;-91
2022/08/24 09:41:27;;;;;;;12.50;5.72;;;;;;;24.78;67.19;99268.69;6159548;23;20000;-90
2022/08/24 09:44:02;;;;;;;13.45;6.18;;;;;;;24.74;66.80;99257.59;6154770;23;19997;-88
2022/08/24 09:46:36;;;;;;;12.48;4.93;;;;;;;24.85;64.10;99249.53;6178881;23;20001;-88
2022/08/24 09:49:23;;;;;;;11.95;5.10;;;;;;;24.75;65.31;99228.91;6154483;23;20420;-90
2022/08/24 09:51:55;;;;;;;8.57;5.25;;;;;;;24.78;65.14;99258.47;6135241;23;20437;-92
2022/08/24 09:54:40;;;;;;;10.82;5.32;;;;;;;24.58;65.67;99252.19;6130257;23;20384;-90
2022/08/24 09:57:16;;;;;;;9.93;4.53;;;;;;;24.69;63.93;99235.88;6176877;23;20013;-92
2022/08/24 10:00:00;;;;;;;8.90;4.07;;;;;;;24.68;64.80;99245.31;6140163;23;20009;-94
2022/08/24 10:02:29;;;;;;;15.18;4.88;;;;;;;24.96;65.03;99231.22;6168275;23;20455;-96
2022/08/24 10:05:15;;;;;;;16.25;5.60;;;;;;;25.09;65.56;99217.22;6163473;23;20001;-95
2022/08/24 10:07:44;;;;;;;14.35;4.72;;;;;;;25.21;63.20;99225.34;6164860;23;20001;-96
2022/08/24 10:10:25;;;;;;;7.85;4.40;;;;;;;25.40;62.97;99216.16;6165088;23;20057;-96
2022/08/24 10:13:18;;;;;;;10.23;5.03;;;;;;;25.51;63.97;99202.53;6160875;23;20009;-92
2022/08/24 10:16:23;;;;;;;9.18;4.63;;;;;;;25.52;63.46;99198.59;6160580;23;20009;-94
2022/08/24 10:19:26;;;;;;;14.20;4.88;;;;;;;25.40;63.22;99200.44;6186146;23;20062;-92
2022/08/24 10:22:13;;;;;;;8.60;4.38;;;;;;;25.68;61.89;99201.97;6186665;23;20000;-93
2022/08/24 10:24:44;;;;;;;7.63;3.55;;;;;;;25.59;60.12;99210.53;6186541;23;20001;-94
2022/08/24 10:27:32;;;;;;;;;;;;;;;25.70;61.43;99202.38;6160468;23;20009;-92
2022/08/24 10:30:25;;;;;;;9.88;4.60;;;;;;;25.44;61.91;99189.44;6180170;23;19904;-92
2022/08/24 10:33:20;;;;;;;6.40;3.38;;;;;;;25.67;60.14;99192.13;6162115;23;20005;-93
2022/08/24 10:36:14;;;;;;;8.10;4.47;;;;;;;25.48;62.40;99176.50;6189796;23;20052;-96
2022/08/24 10:39:45;;;;;;;7.80;4.68;;;;;;;25.94;59.84;99198.38;6138984;23;20012;-96
2022/08/24 10:45:52;;;;;;;11.43;3.72;;;;;;;25.57;60.47;99201.84;6188678;23;20011;-93
2022/08/24 10:48:29;;;;;;;9.07;4.33;;;;;;;25.52;60.69;99204.91;6187451;23;20008;-94
2022/08/24 10:51:04;;;;;;;7.93;4.63;;;;;;;25.37;61.08;99175.56;6160130;23;20059;-91
2022/08/24 10:53:31;;;;;;;10.43;3.63;;;;;;;25.71;59.09;99198.47;6132852;23;20001;-91
2022/08/24 10:56:01;;;;;;;15.68;4.60;;;;;;;25.57;59.62;99179.00;6131486;23;20117;-92
2022/08/24 10:58:28;;;;;;;9.70;4.93;;;;;;;25.80;60.28;99207.25;6129959;23;20013;-94
2022/08/24 11:00:54;;;;;;;11.07;3.28;;;;;;;25.75;58.34;99180.00;6185995;23;20020;-92
2022/08/24 11:03:27;;;;;;;9.43;3.50;;;;;;;25.80;58.52;99185.19;6133639;23;19998;-96
2022/08/24 11:05:53;;;;;;;15.20;4.15;;;;;;;25.72;58.61;99191.78;6109741;23;20001;-94
2022/08/24 11:08:23;;;;;;;9.63;3.58;;;;;;;25.87;59.77;99212.06;6130644;23;20005;-94
2022/08/24 11:11:23;;;;;;;10.50;4.40;;;;;;;25.75;59.02;99202.06;6134875;23;20075;-94
2022/08/24 11:14:08;;;;;;;12.57;4.13;;;;;;;25.87;60.04;99192.75;6036668;23;20003;-96
2022/08/24 11:16:39;;;;;;;13.40;5.28;;;;;;;26.26;58.73;99188.88;6111052;23;20089;-94
2022/08/24 11:19:41;;;;;;;12.10;5.28;;;;;;;26.54;59.03;99210.44;6138992;23;20005;-95
2022/08/24 11:22:43;;;;;;;16.98;4.82;;;;;;;26.58;59.77;99175.38;6164759;23;20000;-95
2022/08/24 11:25:46;;;;;;;11.23;5.60;;;;;;;27.17;57.50;99198.34;6139036;23;20372;-95
2022/08/24 11:28:22;;;;;;;11.18;6.95;;;;;;;27.31;57.55;99180.28;6189813;23;20428;-93
2022/08/24 11:31:08;;;;;;;;;;;;;;;;;;;;;
2022/08/24 11:33:48;;;;;;;11.85;4.88;;;;;;;27.72;55.67;99158.75;6179995;23;19997;-96
2022/08/24 11:36:22;;;;;;;53.75;35.75;;;;;;;27.53;54.73;99150.78;6127921;23;20050;-96
2022/08/24 11:38:48;;;;;;;10.55;3.50;;;;;;;27.57;53.32;99144.06;6120729;23;20001;-95
2022/08/24 11:41:29;;;;;;;11.90;3.80;;;;;;;27.59;54.27;99174.13;6134577;23;19998;-91
2022/08/24 11:44:17;;;;;;;12.70;4.60;;;;;;;27.75;53.76;99180.13;6120433;23;20009;-91
2022/08/24 11:46:49;;;;;;;11.77;3.85;;;;;;;27.76;54.32;99164.31;6185321;23;20004;-90
2022/08/24 11:49:38;;;;;;;15.68;4.88;;;;;;;27.49;53.49;99164.59;6104896;23;20008;-90
2022/08/24 11:52:22;;;;;;;10.18;3.28;;;;;;;27.39;52.13;99177.19;6097550;23;20006;-91
2022/08/24 11:55:13;;;;;;;10.07;3.15;;;;;;;27.21;51.94;99156.91;6157390;23;20008;-91
2022/08/24 11:57:56;;;;;;;12.20;2.80;;;;;;;27.27;51.82;99157.34;6107715;23;20201;-92
2022/08/24 12:00:23;;;;;;;10.60;2.97;;;;;;;27.28;52.22;99147.91;6130398;23;20004;-93
2022/08/24 12:03:12;;;;;;;16.40;4.72;;;;;;;27.13;52.61;99180.94;6110227;23;20067;-93
2022/08/24 12:06:10;;;;;;;9.63;4.53;;;;;;;27.00;53.20;99139.03;6126886;23;20084;-92